National Weather Service United States Department of Commerce

Aviation Forecast Discussion

.AVIATION /08Z MONDAY THROUGH FRIDAY/...
The following discussion is for KPHL, KPNE, KTTN, KABE, KRDG, 
KILG, KMIV, KACY and surrounding areas...

Today...VFR. Small chance of a sprinkle/flurry for the northern
terminals this morning. Winds begin out of the south 5-10 
knots, then shift to the southwest and west during the day. High
confidence.

Tonight...VFR. Winds shift to the southeast around 5 knots or 
less during the evening, then become light and variable most 
places overnight. Moderate confidence.

Outlook...

Tuesday through Friday...A prolonged period of sub-VFR 
conditions in periods of rain and fog Tuesday through Wednesday.
By Wednesday evening, SHRA with locally heavy rain and isolated
TSRA will pass through the terminals through 06Z Thursday. 
Conditions improve to VFR for Thursday and Friday. S winds 10 to
15 kt with gusts up to 20 kt, increasing to 20 to 30 kt with 
gusts up to 40 kt Tuesday night through Wednesday. LLWS 
possible, mainly at KACY, Tuesday night. Winds shift to the NW 
abruptly after 06Z Thursday. Gusty NW winds will gradually 
diminish throughout the day Thursday. Moderate confidence. 

&&

Latest PHL Terminal Aerodrome Forecast (TAF)

FTUS80 KPHL 260530 RRC
KPHL 260528Z 2606/2712 20004KT P6SM BKN300
     FM260900 20005KT P6SM BKN090
     FM261500 23006KT P6SM SCT200
     FM270200 15004KT P6SM BKN150

Latest Area Terminal Aerodrome Forecasts (TAFs)

FTUS80 KPNE 060524 RRE
KPNE 060520Z 0606/0706 VRB03KT 5SM -RA BR OVC040
      TEMPO 0606/0608 3SM RA BR OVC004
     FM060900 VRB03KT 4SM BR OVC004
     FM061500 31005KT P6SM BKN025
     FM061700 30010KT P6SM VCSH BKN035 OVC060
     FM061900 30012G20KT P6SM BKN040
     FM070200 29005KT P6SM BKN200

FTUS80 KTTN 060524 RRF
KTTN 060520Z 0606/0706 VRB03KT 4SM -RA BR OVC008
      TEMPO 0606/0609 2SM RA BR OVC004
     FM061000 VRB03KT 4SM BR OVC004
     FM061500 31005KT P6SM BKN020
     FM061700 30010KT P6SM VCSH BKN030 OVC050
     FM061900 30012G20KT P6SM BKN040
     FM070300 32005KT P6SM BKN200

FTUS80 KILG 060615 AAA
KILG 060613Z 0606/0706 31005KT P6SM SCT012 BKN045
      TEMPO 0609/0612 4SM BR
     FM061300 29005KT P6SM BKN040
     FM061500 27008KT P6SM VCSH BKN045
     FM061700 30012G20KT P6SM BKN050
     FM062300 29010KT P6SM BKN200

FTUS80 KRDG 060524 RRE
KRDG 060520Z 0606/0706 VRB03KT P6SM VCSH OVC040
     FM060900 VRB02KT 4SM BR SCT015 BKN035
     FM061300 28006KT P6SM BKN040
      TEMPO 0614/0616 -SHRA
     FM061600 30012G18KT P6SM BKN050
     FM070100 29006KT P6SM BKN200

FTUS80 KABE 060524
KABE 060520Z 0606/0706 VRB03KT 6SM -SHRA OVC040
     FM060900 VRB02KT 3SM BR SCT012 BKN025
     FM061300 28006KT P6SM BKN030
      TEMPO 0614/0616 -SHRA
     FM061700 30012G20KT P6SM BKN045
     FM070200 28007KT P6SM BKN200

FTNA35 KACY 060526 RRB
KACY 060520Z 0606/0706 VRB03KT 4SM BR OVC004
     FM061200 27003KT 2SM BR OVC002
     FM061600 25006KT P6SM BKN010 OVC030
     FM061800 29012G18KT P6SM BKN045
     FM062300 29005KT P6SM BKN200 AMD NOT SKED

FTUS51 KMIV 060524
KMIV 060520Z 0606/0706 VRB03KT 5SM BR OVC003
     FM061200 27003KT 4SM BR OVC006
     FM061600 25006KT P6SM BKN012 OVC030
     FM061800 29012G18KT P6SM BKN045
     FM062300 29005KT P6SM BKN200

FTUS80 KEWR 060603 AAA
KEWR 060559Z 0606/0712 07006KT 5SM -RA BR OVC004
     FM060800 04005KT 3SM -RA BR OVC006
      TEMPO 0608/0612 2SM -RA BR OVC004
     FM061400 01004KT 6SM BR VCSH BKN008 OVC015
     FM061600 32005KT 4SM BR VCSH OVC012
     FM061900 29011KT P6SM SCT015 BKN035
     FM070500 29007KT P6SM SCT040

FTUS80 KLGA 060603 AAA
KLGA 060559Z 0606/0712 07008KT 6SM -RA BR OVC008
     FM060800 05006KT 3SM -RA BR OVC006
      TEMPO 0608/0612 2SM -RA BR OVC004
     FM061400 35007KT 6SM BR VCSH OVC008
     FM061600 33008KT 6SM BR VCSH OVC015
     FM062000 31009KT P6SM SCT015 OVC035
     FM070600 31008KT P6SM BKN040

FTNA35 KJFK 060608
KJFK 060559Z 0606/0712 09007KT 6SM -RA BR OVC006
     TEMPO 0606/0609 2SM -RA BR OVC004
     FM060900 04005KT 4SM -RA BR OVC006
     TEMPO 0609/0612 2SM -RA BR OVC004
     FM061400 02005KT 6SM BR VCSH OVC008
     FM061600 34007KT 6SM BR VCSH BKN008 OVC015
     FM062000 30010KT P6SM SCT015 BKN035
     FM070600 31008KT P6SM BKN040

FTUS41 KMDT 060527
KMDT 060526Z 0606/0706 30004KT P6SM OVC070
     FM061700 30012G19KT P6SM OVC050

FTUS80 KBWI 060551
KBWI 060549Z 0606/0712 35005KT P6SM BKN040
     FM061200 28007KT P6SM BKN070
     FM061500 29013G21KT P6SM BKN060
     FM062300 29006KT P6SM SCT060

FTUS80 KIAD 060551
KIAD 060549Z 0606/0712 03006KT P6SM SCT090
     FM061200 30007KT P6SM BKN070
     FM061500 30013G21KT P6SM SCT060
     FM062300 30005KT P6SM SCT070

FTUS51 KDCA 060551
KDCA 060549Z 0606/0712 36009KT P6SM BKN110
     FM061200 27006KT P6SM BKN070
     FM061500 30013G21KT P6SM BKN060
     FM062300 30006KT P6SM SCT070

Raw METARs for WFO PHI CWA and Surrounding Areas

--TAFs--TimeTTdRHHIWCDirWindGPKVisWxPcpClouds
KRDG0835Z34257028190710CLR
KABE0835Z281864calm10CLR
KTTN0835Z28258621180610FEW110
KPNE0835Z34257029170510SCT120
KPHL0835Z34257028190710BKN120
KILG0835Z32257527160510CLR
KMIV0835Z362875calm10FEW120
KACY0835Z36308130180710SCT120
--PA--TimeTTdRHHIWCDirWindGPKVisWxPcpClouds
KMPO0835Z302169212401010SCT100
K22N0835Z252186calm10CLR
KXLL0835Z32236927200510CLR
KUKT0835Z32216427160510CLR
KCKZ0835Z302169190310FEW075
SCT100
SCT120
KDYL0835Z34257029220510BKN100
KPTW0835Z34216029180610BKN110
KLOM0835Z322576200310SCT120
KOQN0835Z322780190310CLR
KMQS0835Z282793calm10CLR
--NJ--TimeTTdRHHIWCDirWindGPKVisWxPcpClouds
KFWN0835Z321855calm10OVC110
K12N0754Z342056292005
KMMU0835Z302375calm10BKN110
KSMQ0835Z272180calm10CLR
KBLM0835Z32278025190710
KMJX0835Z30289324210610CLR
KWRI0755Z292481210310CLR
KVAY0835Z27238621160510CLR
KWWD0835Z393481321901010CLR
--DE--TimeTTdRHHIWCDirWindGPKVisWxPcpClouds
K33N0835Z34308729200510FEW070
FEW100
BKN120
KDOV0755Z34277627180910CLR
KGED0835Z34288127190810SCT100
--MD--TimeTTdRHHIWCDirWindGPKVisWxPcpClouds
KW290825Z40347935190810SCT110
KESN0825Z40337634190910OVC110
KCGE0825Z41399335180910
--OKXTAF--TimeTTdRHHIWCDirWindGPKVisWxPcpClouds
KTEB0835Z32236926180610BKN100
KEWR0835Z34257029210610OVC100
KLGA0835Z36215629210910BKN080
OVC095
KJFK0835Z36277030240710BKN080
OVC100
KISP0835Z36308130230710BKN100
KHPN0835Z342160210310SCT070
BKN080
OVC095
KSWF0745Z321960calm10OVC080
KBDR0835Z372765282201410OVC085
KGON0835Z373075282301410FEW080
SCT095
BKN120
--LWXTAF--TimeTTdRHHIWCDirWindGPKVisWxPcpClouds
KMTN0829Z363287calm10OVC080
KBWI0835Z322575calm10BKN075
BKN100
KDCA0835Z41306636200710OVC085
KIAD0835Z41286136190810BKN085
OVC110
KMRB0835Z302786calm10FEW120
KCHO0835Z39276134180710BKN120
-Misc-TimeTTdRHHIWCDirWindGPKVisWxPcpClouds
KCDW0835Z34195629200510BKN110
KLNS0835Z30278625100510CLR
KAVP0835Z362156calm10OVC100
KCXY0835Z362565calm10CLR
KMDT0835Z322575120310CLR
KUNV0835Z352260calm10BKN090
OVC110
KTHV0835Z322575calm10FEW120
KSEG0835Z342365calm10BKN110
KMUI0755Z302480calm10SCT100
BKN120
KNHK0752Z42306238190710OVC110
KOXB0835Z43347110CLR
KSBY0835Z34288128190710OVC110
KWAL0835Z393481312101310CLR
KBGM0835Z36195230190710FEW055
FEW120
KNYC0751Z36225710OVC100
KMGJ0835Z30196424220610OVC110
KPOU0835Z34216029150510OVC095

 

KDIX Radar Loop

KDIX Radar

KDOX Radar Loop

KDOX Radar

Visible Satellite

Visible ImageVisible Loop

Infrared Satellite

Infrared ImageInfrared Loop

ZNY Briefing

ZNY Briefing

ZNY SWAP Statement

ZNY SWAP Statement

KPHL Wind Speed Outlook

KPHL Wind Outlook

KPHL Icing Outlook

KPHL Icing  Outlook

KPHL Compression Outlook

KPHL Compression Outlook

ZNY Day 1 SWAP

KPHL Day 1 SWAP

ZNY Day 2 SWAP

KPHL Day 2 SWAP

Turbulence PIREPs

Turbulence PIREPs

Icing PIREPs

Icing PIREPs

Weather/Sky PIREPs

Weather/Sky PIREPs

Current AIRMETs/SIGMETs

Current AIRMETs/SIGMETs

Sierra (Mountains/IFR) AIRMETs

Current 3-hr Forecast 6-hr Forecast

No Plot Available

No Plot Available

No Plot Available

9-hr Forecast 12-hr Forecast

No Plot Available

No Plot Available

Tango (Turbulence/LLWS) AIRMETs

Current 3-hr Forecast 6-hr Forecast

No Plot Available

No Plot Available

No Plot Available

9-hr Forecast 12-hr Forecast

No Plot Available

No Plot Available

Icing AIRMETs

Current 3-hr Forecast 6-hr Forecast

No Plot Available

No Plot Available

No Plot Available

9-hr Forecast 12-hr Forecast

No Plot Available

No Plot Available

Freezing Level AIRMETs

Current 3-hr Forecast 6-hr Forecast

No Plot Available

No Plot Available

No Plot Available

9-hr Forecast 12-hr Forecast

No Plot Available

No Plot Available